Time;durP1;ratioP1;P1;durP2;ratioP2;P2;SDS_P1;SDS_P2;PMS_P1;PMS_P2;Temp;Humidity;BMP_temperature;BMP_pressure;BME280_temperature;BME280_humidity;BME280_pressure;Samples;Min_cycle;Max_cycle;Signal;HPM_P1;HPM_P2
2023/08/28 00:01:05;;;;;;;17.37;8.95;;;;;;;24.22;63.95;99557.86;1430741;91;21272;-79
2023/08/28 00:03:31;;;;;;;15.72;8.40;;;;;;;24.20;63.84;99558.67;1426380;91;21383;-79
2023/08/28 00:05:58;;;;;;;11.85;7.87;;;;;;;24.18;63.97;99559.46;1427087;91;21311;-80
2023/08/28 00:08:24;;;;;;;17.75;7.83;;;;;;;24.14;64.42;99557.02;1430540;90;21434;-79
2023/08/28 00:10:54;;;;;;;17.35;8.50;;;;;;;24.09;64.53;99555.61;1428249;91;22321;-80
2023/08/28 00:13:20;;;;;;;18.32;8.85;;;;;;;24.05;64.53;99554.48;1438038;91;21582;-80
2023/08/28 00:15:46;;;;;;;11.70;8.45;;;;;;;24.02;64.82;99549.59;1425440;91;21529;-80
2023/08/28 00:18:13;;;;;;;16.17;9.40;;;;;;;23.98;65.08;99549.84;1424732;91;22229;-80
2023/08/28 00:20:40;;;;;;;17.30;8.43;;;;;;;23.94;65.34;99555.46;1429280;91;21466;-79
2023/08/28 00:23:06;;;;;;;18.95;8.85;;;;;;;23.89;65.60;99556.78;1438079;90;22218;-80
2023/08/28 00:25:32;;;;;;;17.92;8.83;;;;;;;23.82;66.19;99561.88;1423933;91;21422;-81
2023/08/28 00:27:58;;;;;;;20.95;9.03;;;;;;;23.78;66.74;99558.57;1423986;91;21463;-80
2023/08/28 00:30:24;;;;;;;13.70;6.95;;;;;;;23.75;67.11;99558.54;1414562;91;21414;-81
2023/08/28 00:32:50;;;;;;;15.78;7.70;;;;;;;23.75;67.76;99557.73;1425520;91;21377;-81
2023/08/28 00:35:17;;;;;;;15.45;8.40;;;;;;;23.74;67.60;99556.92;1429769;91;21399;-79
2023/08/28 00:37:43;;;;;;;13.78;8.25;;;;;;;23.76;67.38;99555.30;1428979;91;21620;-80
2023/08/28 00:40:13;;;;;;;16.67;9.53;;;;;;;23.76;67.40;99557.45;1429913;91;21384;-80
2023/08/28 00:42:38;;;;;;;15.10;8.38;;;;;;;23.74;67.47;99554.22;1434355;91;21591;-80
2023/08/28 00:45:05;;;;;;;13.18;8.70;;;;;;;23.73;67.47;99556.63;1425219;91;21496;-80
2023/08/28 00:47:32;;;;;;;17.40;8.50;;;;;;;23.70;67.57;99555.78;1435083;90;21576;-80
2023/08/28 00:49:58;;;;;;;16.00;8.38;;;;;;;23.65;68.21;99556.53;1411227;91;22326;-81
2023/08/28 00:52:24;;;;;;;20.85;9.40;;;;;;;23.59;68.66;99562.12;1428011;91;21444;-81
2023/08/28 00:54:51;;;;;;;13.35;8.35;;;;;;;23.49;69.69;99562.03;1421501;91;22235;-80
2023/08/28 00:57:18;;;;;;;16.95;9.78;;;;;;;23.35;71.08;99561.59;1421153;91;21565;-81
2023/08/28 00:59:44;;;;;;;22.55;8.60;;;;;;;23.25;72.16;99556.91;1436266;91;21511;-81
2023/08/28 01:02:11;;;;;;;19.12;8.33;;;;;;;23.22;72.35;99562.81;1414692;91;21340;-81
2023/08/28 01:04:37;;;;;;;22.67;8.78;;;;;;;23.20;73.83;99552.79;1430690;90;21397;-82
2023/08/28 01:07:25;;;;;;;14.73;7.97;;;;;;;23.18;73.73;99553.02;1431864;91;22373;-81
2023/08/28 01:10:31;;;;;;;15.58;7.55;;;;;;;23.09;75.51;99556.42;1427451;91;21526;-81
2023/08/28 01:13:24;;;;;;;18.48;8.98;;;;;;;22.99;75.76;99555.78;1406876;91;21591;-79
2023/08/28 01:15:53;;;;;;;16.12;8.88;;;;;;;22.87;77.16;99557.22;1421373;91;21392;-81
2023/08/28 01:18:20;;;;;;;20.50;8.58;;;;;;;22.87;77.16;99557.22;1425612;90;21360;-80
2023/08/28 01:20:49;;;;;;;14.33;8.23;;;;;;;22.80;78.51;99558.45;1409965;91;21348;-79
2023/08/28 01:23:39;;;;;;;17.48;8.73;;;;;;;22.80;78.51;99558.45;1406639;91;21536;-78
2023/08/28 01:26:06;;;;;;;14.93;8.78;;;;;;;22.74;79.78;99557.56;1390512;91;21488;-80
2023/08/28 01:28:33;;;;;;;16.15;8.40;;;;;;;22.64;80.92;99555.55;1431416;91;21503;-80
2023/08/28 01:30:59;;;;;;;13.22;8.65;;;;;;;22.64;80.92;99555.55;1432795;91;21526;-80
2023/08/28 01:33:25;;;;;;;14.50;8.75;;;;;;;22.57;82.20;99550.84;1426148;91;22376;-80
2023/08/28 01:36:00;;;;;;;20.08;9.18;;;;;;;22.57;82.20;99550.84;1419292;91;21363;-80
2023/08/28 01:38:41;;;;;;;16.27;8.85;;;;;;;22.54;82.19;99543.25;1424685;90;21509;-80
2023/08/28 01:41:09;;;;;;;19.20;9.75;;;;;;;22.52;83.11;99541.78;1426639;91;21629;-80
2023/08/28 01:43:38;;;;;;;16.15;8.88;;;;;;;22.43;84.79;99532.84;1419415;91;21392;-80
2023/08/28 01:46:06;;;;;;;15.10;8.60;;;;;;;22.43;84.79;99532.84;1430766;90;21374;-80
2023/08/28 01:48:37;;;;;;;14.05;9.30;;;;;;;22.45;85.08;99537.47;1441023;90;22485;-80
2023/08/28 01:51:04;;;;;;;20.88;9.53;;;;;;;22.45;85.08;99537.47;1432725;90;21574;-80
2023/08/28 01:53:30;;;;;;;21.48;10.15;;;;;;;22.43;85.51;99532.03;1429741;91;21907;-80
2023/08/28 01:56:11;;;;;;;21.52;9.58;;;;;;;22.36;86.33;99534.91;1423841;90;21355;-80
2023/08/28 01:58:47;;;;;;;15.15;10.05;;;;;;;22.36;86.33;99534.91;1418996;90;21348;-80
2023/08/28 02:01:15;;;;;;;17.17;9.75;;;;;;;22.32;88.26;99532.41;1427949;91;22894;-81
2023/08/28 02:03:42;;;;;;;19.77;10.08;;;;;;;22.30;89.53;99535.36;1434032;90;21460;-81
2023/08/28 02:06:09;;;;;;;14.18;9.30;;;;;;;22.28;91.39;99524.00;1432435;91;21517;-80
2023/08/28 02:08:36;;;;;;;16.00;8.70;;;;;;;22.29;92.15;99526.16;1424503;91;21607;-80
2023/08/28 02:11:04;;;;;;;16.30;9.23;;;;;;;22.28;91.84;99525.34;1422153;91;21375;-80
2023/08/28 02:13:30;;;;;;;16.65;9.00;;;;;;;22.26;92.56;99523.96;1425695;90;21516;-80
2023/08/28 02:15:57;;;;;;;22.60;9.38;;;;;;;22.21;92.99;99520.67;1441152;90;21611;-80
2023/08/28 02:18:23;;;;;;;14.45;9.28;;;;;;;22.17;93.69;99525.41;1433926;90;21419;-80
2023/08/28 02:20:49;;;;;;;14.23;8.55;;;;;;;22.14;93.86;99526.72;1427772;91;21591;-81
2023/08/28 02:23:16;;;;;;;16.85;9.93;;;;;;;22.11;96.74;99531.25;1429790;91;22287;-81
2023/08/28 02:25:44;;;;;;;16.62;9.73;;;;;;;22.11;97.06;99529.09;1425023;91;21535;-81
2023/08/28 02:28:11;;;;;;;17.62;10.05;;;;;;;22.09;99.47;99534.17;1419096;91;22401;-81
2023/08/28 02:30:37;;;;;;;18.90;9.50;;;;;;;22.08;100.00;99536.59;1436018;90;21345;-81
2023/08/28 02:33:04;;;;;;;10.95;8.83;;;;;;;22.05;100.00;99533.04;1414451;91;21525;-80
2023/08/28 02:35:31;;;;;;;18.25;9.60;;;;;;;22.01;100.00;99530.56;1424589;91;22109;-81
2023/08/28 02:37:57;;;;;;;17.77;10.30;;;;;;;21.98;100.00;99535.09;1433288;91;22465;-80
2023/08/28 02:40:24;;;;;;;17.20;8.70;;;;;;;21.95;100.00;99536.93;1438707;90;21376;-81
2023/08/28 02:42:51;;;;;;;16.65;9.23;;;;;;;21.93;100.00;99537.70;1439839;90;21541;-81
2023/08/28 02:45:17;;;;;;;14.28;9.40;;;;;;;21.91;100.00;99533.61;1427662;91;21360;-82
2023/08/28 02:47:43;;;;;;;16.35;10.15;;;;;;;21.91;100.00;99541.16;1431050;91;21938;-80
2023/08/28 02:50:10;;;;;;;21.23;11.25;;;;;;;21.90;100.00;99539.53;1430178;91;21405;-80
2023/08/28 02:52:36;;;;;;;14.40;8.98;;;;;;;21.88;100.00;99538.95;1430609;91;21568;-81
2023/08/28 02:55:02;;;;;;;18.73;9.13;;;;;;;21.84;100.00;99537.81;1426538;90;21332;-79
2023/08/28 02:57:28;;;;;;;15.95;9.63;;;;;;;21.77;100.00;99533.91;1429456;90;21840;-80
2023/08/28 02:59:54;;;;;;;18.07;9.10;;;;;;;21.74;100.00;99531.70;1425690;91;22252;-80
2023/08/28 03:02:21;;;;;;;19.98;8.80;;;;;;;21.73;100.00;99544.08;1407685;91;21519;-80
2023/08/28 03:04:47;;;;;;;19.12;9.65;;;;;;;21.73;100.00;99541.39;1425784;91;21428;-80
2023/08/28 03:07:13;;;;;;;18.57;10.58;;;;;;;21.73;100.00;99545.42;1411655;91;21990;-80
2023/08/28 03:09:39;;;;;;;16.67;10.00;;;;;;;21.73;100.00;99551.63;1436262;91;21390;-79
2023/08/28 03:12:06;;;;;;;15.48;9.75;;;;;;;21.74;100.00;99544.36;1428787;91;21405;-79
2023/08/28 03:14:33;;;;;;;18.20;9.50;;;;;;;21.72;100.00;99541.08;1432818;90;21375;-79
2023/08/28 03:16:59;;;;;;;18.67;9.98;;;;;;;21.68;100.00;99545.33;1425317;91;21493;-80
2023/08/28 03:19:25;;;;;;;17.35;9.43;;;;;;;21.66;100.00;99548.78;1432101;91;21382;-80
2023/08/28 03:21:52;;;;;;;16.55;10.38;;;;;;;21.63;100.00;99550.89;1427766;91;21384;-80
2023/08/28 03:24:18;;;;;;;19.00;9.08;;;;;;;21.62;100.00;99556.53;1426317;90;21426;-80
2023/08/28 03:26:44;;;;;;;18.62;10.25;;;;;;;21.57;100.00;99553.20;1435156;90;21509;-79
2023/08/28 03:29:10;;;;;;;20.52;10.72;;;;;;;21.55;100.00;99554.50;1429778;90;21382;-79
2023/08/28 03:31:36;;;;;;;18.05;11.63;;;;;;;21.54;100.00;99555.03;1432851;91;21316;-80
2023/08/28 03:34:03;;;;;;;19.10;10.68;;;;;;;21.52;100.00;99553.13;1429936;91;21586;-80
2023/08/28 03:36:29;;;;;;;19.25;10.32;;;;;;;21.49;100.00;99549.58;1414220;91;21347;-80
2023/08/28 03:38:55;;;;;;;15.65;10.93;;;;;;;21.48;100.00;99552.50;1420853;91;22761;-79
2023/08/28 03:41:21;;;;;;;18.37;10.43;;;;;;;21.46;100.00;99554.06;1418966;91;21894;-80
2023/08/28 03:43:48;;;;;;;14.43;9.13;;;;;;;21.46;100.00;99555.41;1422399;91;21471;-80
2023/08/28 03:46:14;;;;;;;22.67;10.50;;;;;;;21.46;100.00;99555.41;1430075;91;22286;-79
2023/08/28 03:48:40;;;;;;;18.30;10.58;;;;;;;21.46;100.00;99556.76;1422049;91;21429;-78
2023/08/28 03:51:06;;;;;;;17.98;11.00;;;;;;;21.49;100.00;99560.84;1426658;91;21382;-78
2023/08/28 03:53:33;;;;;;;20.25;12.23;;;;;;;21.49;100.00;99560.84;1426867;91;22803;-78
2023/08/28 03:55:59;;;;;;;15.63;12.73;;;;;;;21.49;100.00;99558.16;1430341;90;21419;-78
2023/08/28 03:58:26;;;;;;;24.85;11.97;;;;;;;21.49;100.00;99560.84;1431995;91;21330;-78
2023/08/28 04:00:57;;;;;;;32.65;12.63;;;;;;;21.48;100.00;99560.03;1442500;90;22367;-77
2023/08/28 04:03:21;;;;;;;20.12;10.58;;;;;;;;;;1435625;90;22248;-78
2023/08/28 04:05:48;;;;;;;16.50;10.95;;;;;;;21.43;100.00;99559.13;1417103;91;21399;-78
2023/08/28 04:08:15;;;;;;;21.42;9.63;;;;;;;21.39;100.00;99564.98;1436561;90;22388;-79
2023/08/28 04:10:43;;;;;;;23.05;10.08;;;;;;;21.40;100.00;99569.30;1431999;90;21338;-79
2023/08/28 04:13:10;;;;;;;19.20;11.15;;;;;;;21.40;100.00;99569.83;1424845;91;21458;-81
2023/08/28 04:15:38;;;;;;;16.73;10.15;;;;;;;21.40;100.00;99576.56;1425347;91;21629;-80
2023/08/28 04:18:04;;;;;;;18.62;11.12;;;;;;;21.38;100.00;99574.66;1430477;91;21442;-80
2023/08/28 04:20:31;;;;;;;24.87;11.45;;;;;;;21.37;100.00;99575.70;1432309;90;22300;-80
2023/08/28 04:22:57;;;;;;;16.37;10.35;;;;;;;21.38;100.00;99575.47;1437378;91;21382;-80
2023/08/28 04:25:23;;;;;;;14.75;10.10;;;;;;;21.43;100.00;99584.16;1430525;90;21717;-79
2023/08/28 04:27:50;;;;;;;23.85;9.35;;;;;;;21.46;100.00;99578.30;1432567;90;21590;-78
2023/08/28 04:30:16;;;;;;;17.45;9.73;;;;;;;21.50;100.00;99574.08;1439531;90;21481;-80
2023/08/28 04:32:42;;;;;;;15.53;9.85;;;;;;;21.55;100.00;99582.77;1414339;92;21368;-80
2023/08/28 04:35:09;;;;;;;20.75;10.72;;;;;;;21.57;100.00;99582.81;1430501;90;22402;-80
2023/08/28 04:37:36;;;;;;;18.48;10.20;;;;;;;21.61;100.00;99586.69;1429629;91;21412;-85
2023/08/28 04:40:03;;;;;;;15.83;10.25;;;;;;;21.61;100.00;99589.37;1428127;90;21485;-82
2023/08/28 04:42:30;;;;;;;24.52;11.97;;;;;;;21.58;100.00;99588.52;1427608;90;21530;-83
2023/08/28 04:44:56;;;;;;;17.32;10.68;;;;;;;21.60;100.00;99593.11;1432310;91;21323;-82
2023/08/28 04:47:22;;;;;;;17.75;10.93;;;;;;;21.61;100.00;99592.60;1436044;90;21375;-82
2023/08/28 04:49:49;;;;;;;22.07;10.30;;;;;;;21.62;100.00;99592.34;1434621;90;21375;-84
2023/08/28 04:52:16;;;;;;;18.10;10.88;;;;;;;21.65;100.00;99591.59;1436681;90;21375;-83
2023/08/28 04:54:43;;;;;;;17.85;10.23;;;;;;;21.73;100.00;99585.81;1439380;90;21412;-85
2023/08/28 04:57:09;;;;;;;17.20;10.53;;;;;;;21.82;100.00;99587.06;1435437;91;21331;-84
2023/08/28 04:59:35;;;;;;;17.95;12.23;;;;;;;21.90;100.00;99587.20;1430421;90;21376;-83
2023/08/28 05:02:02;;;;;;;18.27;12.05;;;;;;;21.99;100.00;99575.78;1431000;90;22320;-82
2023/08/28 05:04:28;;;;;;;26.87;11.22;;;;;;;22.00;100.00;99577.41;1435018;90;21405;-82
2023/08/28 05:06:54;;;;;;;21.07;10.25;;;;;;;22.09;100.00;99588.06;1426817;90;21434;-82
2023/08/28 05:09:20;;;;;;;19.12;11.08;;;;;;;22.18;100.00;99593.09;1433296;90;21396;-84
2023/08/28 05:11:46;;;;;;;25.12;11.78;;;;;;;22.20;100.00;99588.28;1434718;90;22372;-86
2023/08/28 05:14:12;;;;;;;12.07;9.85;;;;;;;22.21;100.00;99592.59;1430205;91;21323;-83
2023/08/28 05:16:38;;;;;;;28.23;11.12;;;;;;;22.24;100.00;99599.69;1434046;90;21486;-86
2023/08/28 05:19:05;;;;;;;17.17;10.30;;;;;;;22.29;100.00;99597.59;1429653;90;22335;-83
2023/08/28 05:21:31;;;;;;;27.87;11.03;;;;;;;22.35;100.00;99603.34;1438590;91;22336;-82
2023/08/28 05:23:57;;;;;;;14.85;10.85;;;;;;;22.43;100.00;99603.48;1423767;90;21376;-83
2023/08/28 05:26:23;;;;;;;24.10;11.63;;;;;;;22.50;100.00;99602.80;1437160;91;21472;-82
2023/08/28 05:28:49;;;;;;;15.80;9.75;;;;;;;22.59;100.00;99596.45;1434398;90;21620;-80
2023/08/28 05:31:16;;;;;;;19.45;10.13;;;;;;;22.65;100.00;99596.27;1436277;90;21376;-80
2023/08/28 05:33:42;;;;;;;17.30;10.90;;;;;;;22.77;100.00;99598.88;1431560;90;21621;-84
2023/08/28 05:36:08;;;;;;;17.37;10.13;;;;;;;22.86;100.00;99602.77;1431843;91;21443;-89
2023/08/28 05:38:35;;;;;;;18.60;10.82;;;;;;;22.98;100.00;99602.16;1420288;91;21746;-83
2023/08/28 05:41:01;;;;;;;15.23;11.40;;;;;;;23.10;100.00;99605.28;1429989;90;21457;-78
2023/08/28 05:43:27;;;;;;;14.58;10.43;;;;;;;23.23;100.00;99608.16;1405990;91;21429;-86
2023/08/28 05:45:54;;;;;;;27.58;11.38;;;;;;;23.35;100.00;99609.66;1432233;90;21369;-82
2023/08/28 05:48:20;;;;;;;19.23;11.05;;;;;;;23.48;100.00;99604.93;1433467;90;21324;-83
2023/08/28 05:50:50;;;;;;;16.12;11.57;;;;;;;23.56;100.00;99600.44;1432063;90;21547;-86
2023/08/28 05:53:16;;;;;;;21.35;11.43;;;;;;;23.63;100.00;99606.47;1430932;90;21426;-81
2023/08/28 05:55:45;;;;;;;18.05;10.08;;;;;;;23.67;100.00;99604.88;1433907;90;21375;-82
2023/08/28 05:58:11;;;;;;;19.37;11.12;;;;;;;23.79;100.00;99610.17;1358014;91;21250;-86
2023/08/28 06:00:38;;;;;;;19.07;9.13;;;;;;;23.84;100.00;99612.93;1366003;90;22123;-82
2023/08/28 06:03:04;;;;;;;14.47;9.55;;;;;;;23.93;100.00;99609.23;1512051;90;21198;-87
2023/08/28 06:05:31;;;;;;;22.27;9.10;;;;;;;24.01;100.00;99616.34;1360001;91;22064;-82
2023/08/28 06:07:58;;;;;;;16.00;8.73;;;;;;;24.11;100.00;99619.70;1410537;90;21361;-87
2023/08/28 06:10:24;;;;;;;16.97;9.68;;;;;;;24.24;100.00;99614.39;1360412;90;21421;-83
2023/08/28 06:12:50;;;;;;;18.62;8.33;;;;;;;24.37;100.00;99615.84;1355116;91;22118;-85
2023/08/28 06:15:19;;;;;;;17.98;8.90;;;;;;;24.48;100.00;99605.41;1366007;90;21428;-81
2023/08/28 06:17:50;;;;;;;13.57;8.13;;;;;;;24.62;100.00;99602.54;1352346;91;22177;-84
2023/08/28 06:20:16;;;;;;;11.43;8.55;;;;;;;24.81;100.00;99600.78;1359132;90;21406;-86
2023/08/28 06:22:43;;;;;;;18.90;8.55;;;;;;;24.97;100.00;99606.54;1510647;90;21229;-83
2023/08/28 06:25:09;;;;;;;14.23;8.78;;;;;;;25.13;100.00;99600.14;1353680;92;22183;-92
2023/08/28 06:27:36;;;;;;;19.60;9.10;;;;;;;25.29;100.00;99600.22;1433113;91;21437;-84
2023/08/28 06:30:05;;;;;;;13.38;8.80;;;;;;;25.45;100.00;99596.50;1428707;91;21488;-81
2023/08/28 06:32:32;;;;;;;15.32;8.50;;;;;;;25.62;100.00;99597.64;1425068;90;21451;-78
2023/08/28 06:35:00;;;;;;;19.25;9.40;;;;;;;25.79;100.00;99590.64;1427059;91;21414;-80
2023/08/28 06:37:26;;;;;;;28.45;9.23;;;;;;;25.93;100.00;99587.71;1358683;90;21325;-80
2023/08/28 06:39:53;;;;;;;17.23;7.70;;;;;;;26.08;100.00;99582.29;1360025;91;22317;-82
2023/08/28 06:42:19;;;;;;;16.50;7.87;;;;;;;26.22;100.00;99575.79;1365184;90;21294;-82
2023/08/28 06:44:46;;;;;;;10.35;7.42;;;;;;;26.40;100.00;99572.25;1359911;90;21458;-82
2023/08/28 06:47:13;;;;;;;21.30;8.18;;;;;;;26.54;100.00;99576.88;1399046;91;22689;-80
2023/08/28 06:49:39;;;;;;;15.23;8.20;;;;;;;26.68;100.00;99577.67;1422917;91;21627;-81
2023/08/28 06:52:06;;;;;;;13.32;7.67;;;;;;;26.84;99.56;99580.61;1429226;91;22338;-81
2023/08/28 06:54:32;;;;;;;18.60;7.65;;;;;;;26.97;97.75;99573.25;1433196;91;22424;-80
2023/08/28 06:56:59;;;;;;;13.18;8.78;;;;;;;27.13;97.68;99568.59;1428190;91;21572;-81
2023/08/28 06:59:25;;;;;;;21.70;8.53;;;;;;;27.26;95.18;99565.83;1432562;91;21361;-80
2023/08/28 07:01:51;;;;;;;14.03;8.13;;;;;;;27.37;93.09;99576.11;1425117;91;21828;-81
2023/08/28 07:04:17;;;;;;;18.25;7.67;;;;;;;27.51;93.14;99574.96;1429017;91;22284;-81
2023/08/28 07:06:44;;;;;;;14.50;7.45;;;;;;;27.64;92.49;99572.96;1427057;91;21503;-81
2023/08/28 07:09:10;;;;;;;13.65;7.95;;;;;;;27.80;91.08;99573.17;1427204;91;21385;-82
2023/08/28 07:11:37;;;;;;;19.48;8.00;;;;;;;27.97;90.43;99578.77;1425777;91;21378;-81
2023/08/28 07:14:05;;;;;;;11.05;6.92;;;;;;;28.13;88.58;99580.26;1427246;91;21465;-81
2023/08/28 07:16:31;;;;;;;11.05;7.47;;;;;;;28.28;85.84;99579.31;1412809;91;22345;-82
2023/08/28 07:18:57;;;;;;;19.80;8.60;;;;;;;28.42;85.33;99574.06;1426590;91;22401;-83
2023/08/28 07:21:24;;;;;;;16.32;7.83;;;;;;;28.57;85.11;99575.30;1424919;91;21488;-80
2023/08/28 07:23:51;;;;;;;14.33;7.55;;;;;;;28.71;83.64;99573.48;1428556;90;21367;-82
2023/08/28 07:26:19;;;;;;;17.25;8.25;;;;;;;28.86;81.92;99567.61;1424114;91;21524;-82
2023/08/28 07:28:46;;;;;;;16.30;7.87;;;;;;;29.02;79.73;99570.43;1358284;91;22241;-81
2023/08/28 07:31:12;;;;;;;15.35;7.58;;;;;;;29.14;78.08;99571.41;1369895;90;21293;-79
2023/08/28 07:33:38;;;;;;;13.05;6.45;;;;;;;29.24;76.91;99562.56;1353469;91;22101;-82
2023/08/28 07:36:05;;;;;;;20.77;7.75;;;;;;;29.32;75.36;99560.27;1379319;90;21259;-81
2023/08/28 07:38:32;;;;;;;16.02;7.47;;;;;;;29.41;74.34;99557.17;1411218;90;21382;-82
2023/08/28 07:40:58;;;;;;;8.18;6.97;;;;;;;29.52;74.17;99555.92;1441436;90;21418;-83
2023/08/28 07:43:24;;;;;;;23.35;7.05;;;;;;;29.65;73.16;99555.20;1451246;88;21479;-79
2023/08/28 07:45:51;;;;;;;13.48;6.90;;;;;;;29.81;72.43;99552.27;1451057;88;22492;-81
2023/08/28 07:48:17;;;;;;;19.35;7.22;;;;;;;29.95;70.55;99549.01;1471591;88;21473;-80
2023/08/28 07:50:45;;;;;;;17.25;7.00;;;;;;;30.08;68.57;99546.89;1471945;88;21368;-81
2023/08/28 07:53:14;;;;;;;13.30;6.78;;;;;;;30.22;67.90;99551.63;1433609;91;21478;-81
2023/08/28 07:55:40;;;;;;;14.75;6.70;;;;;;;30.33;65.65;99555.80;1425590;91;21619;-82
2023/08/28 07:58:08;;;;;;;16.12;7.37;;;;;;;30.45;66.49;99550.66;1471891;88;21443;-81
2023/08/28 08:00:35;;;;;;;15.65;5.83;;;;;;;30.61;66.28;99547.63;1438946;90;21508;-81
2023/08/28 08:03:05;;;;;;;9.38;7.22;;;;;;;30.75;65.47;99540.27;1434992;91;21463;-82
2023/08/28 08:05:31;;;;;;;13.60;7.03;;;;;;;30.91;64.55;99540.81;1436795;90;22567;-81
2023/08/28 08:07:58;;;;;;;15.18;7.10;;;;;;;31.03;63.69;99541.09;1437135;91;21432;-80
2023/08/28 08:10:24;;;;;;;15.23;6.87;;;;;;;31.19;63.85;99537.50;1434225;91;22262;-82
2023/08/28 08:12:53;;;;;;;18.90;7.85;;;;;;;31.34;63.01;99537.16;1436299;90;21345;-79
2023/08/28 08:15:20;;;;;;;17.80;7.37;;;;;;;31.47;61.42;99539.06;1431436;91;21426;-80
2023/08/28 08:17:46;;;;;;;11.93;7.42;;;;;;;31.61;60.25;99538.22;1441602;90;21837;-80
2023/08/28 08:20:12;;;;;;;12.07;7.00;;;;;;;31.69;58.52;99534.75;1473429;88;21457;-81
2023/08/28 08:22:42;;;;;;;15.65;7.30;;;;;;;31.80;58.59;99525.75;1436539;90;21549;-79
2023/08/28 08:25:10;;;;;;;16.73;6.95;;;;;;;31.88;57.04;99527.72;1437167;91;21397;-80
2023/08/28 08:27:38;;;;;;;13.98;7.17;;;;;;;31.96;56.67;99523.46;1433827;91;21486;-81
2023/08/28 08:30:07;;;;;;;13.43;6.97;;;;;;;32.06;55.24;99524.02;1464851;88;21361;-82
2023/08/28 08:32:34;;;;;;;14.68;7.83;;;;;;;32.17;55.99;99522.38;1362072;91;21413;-80
2023/08/28 08:35:00;;;;;;;13.30;7.10;;;;;;;32.26;54.11;99518.58;1370041;90;21338;-80
2023/08/28 08:37:27;;;;;;;17.87;6.60;;;;;;;32.35;52.07;99518.63;1364793;90;21318;-81
2023/08/28 08:39:53;;;;;;;12.10;7.10;;;;;;;32.45;51.58;99520.27;1364590;91;21272;-81
2023/08/28 08:42:19;;;;;;;18.07;6.67;;;;;;;32.56;50.84;99518.91;1395958;88;21243;-80
2023/08/28 08:44:46;;;;;;;13.98;7.20;;;;;;;32.66;51.03;99517.27;1364643;90;21206;-81
2023/08/28 08:47:13;;;;;;;14.10;6.47;;;;;;;32.75;49.94;99517.30;1383128;90;22396;-81
2023/08/28 08:49:41;;;;;;;17.52;6.85;;;;;;;32.71;48.48;99517.09;1377349;90;21221;-83
2023/08/28 08:52:09;;;;;;;10.75;7.45;;;;;;;32.76;49.06;99512.84;1450920;88;21405;-81
2023/08/28 08:54:42;;;;;;;16.93;6.58;;;;;;;32.88;48.79;99517.72;1363298;90;21242;-82
2023/08/28 08:57:34;;;;;;;7.70;6.12;;;;;;;32.91;48.76;99508.86;1553477;88;21303;-81
2023/08/28 09:00:03;;;;;;;15.53;6.83;;;;;;;32.96;48.91;99512.83;1511427;90;21398;-83
2023/08/28 09:02:31;;;;;;;12.70;6.37;;;;;;;33.09;48.62;99505.64;1362191;91;21199;-81
2023/08/28 09:04:57;;;;;;;9.60;6.85;;;;;;;33.19;47.04;99501.20;1363615;90;21397;-81
2023/08/28 09:07:26;;;;;;;9.73;6.03;;;;;;;33.21;46.12;99493.48;1395430;88;21517;-79
2023/08/28 09:09:53;;;;;;;7.80;6.20;;;;;;;33.25;45.53;99497.17;1368478;90;21317;-82
2023/08/28 09:12:19;;;;;;;15.20;6.20;;;;;;;33.36;45.99;99499.62;1555929;88;21326;-81
2023/08/28 09:14:46;;;;;;;12.50;6.05;;;;;;;33.46;45.51;99497.37;1353699;91;22108;-82
2023/08/28 09:17:12;;;;;;;13.68;5.70;;;;;;;33.54;45.28;99499.08;1370224;90;21235;-81
2023/08/28 09:19:38;;;;;;;13.65;6.45;;;;;;;33.64;44.98;99494.08;1555974;88;22148;-81
2023/08/28 09:22:05;;;;;;;21.33;6.12;;;;;;;33.73;44.21;99491.89;1424009;91;22931;-79
2023/08/28 09:24:31;;;;;;;9.73;7.03;;;;;;;33.80;44.41;99483.96;1441912;91;21360;-81
2023/08/28 09:26:57;;;;;;;13.85;6.90;;;;;;;33.87;43.92;99485.66;1431303;88;21567;-83
2023/08/28 09:29:24;;;;;;;12.68;6.58;;;;;;;33.95;43.27;99480.69;1470510;88;21457;-82
2023/08/28 09:31:51;;;;;;;11.20;6.58;;;;;;;34.02;42.77;99476.09;1439330;90;21330;-82
2023/08/28 09:34:22;;;;;;;19.25;6.75;;;;;;;34.05;43.01;99472.16;1467407;88;22422;-82
2023/08/28 09:36:48;;;;;;;16.55;6.45;;;;;;;34.07;42.34;99467.15;1436418;90;21382;-82
2023/08/28 09:39:14;;;;;;;14.55;6.80;;;;;;;34.18;43.06;99462.08;1438350;91;21802;-82
2023/08/28 09:41:45;;;;;;;19.90;6.42;;;;;;;34.27;42.61;99459.30;1472686;88;21531;-82
2023/08/28 09:44:13;;;;;;;18.48;7.00;;;;;;;34.37;42.63;99455.63;1474681;88;22293;-82
2023/08/28 09:46:43;;;;;;;15.03;6.95;;;;;;;34.46;42.22;99452.84;1438105;91;21409;-82
2023/08/28 09:49:13;;;;;;;10.28;6.40;;;;;;;34.46;41.59;99452.05;1437441;90;22350;-82
2023/08/28 09:51:43;;;;;;;18.42;7.30;;;;;;;34.54;42.25;99446.51;1432899;90;22425;-83
2023/08/28 09:54:10;;;;;;;11.53;6.33;;;;;;;34.64;41.65;99439.84;1433198;90;21494;-82
2023/08/28 09:56:38;;;;;;;11.30;6.50;;;;;;;34.70;40.93;99437.71;1437017;90;21264;-83
2023/08/28 09:59:09;;;;;;;13.30;6.50;;;;;;;34.79;40.94;99435.73;1468720;88;21376;-81
2023/08/28 10:01:37;;;;;;;14.38;6.53;;;;;;;34.85;40.45;99431.65;1432842;90;21434;-79
2023/08/28 10:04:09;;;;;;;14.43;6.33;;;;;;;34.91;40.96;99436.38;1436138;91;21352;-80
2023/08/28 10:06:57;;;;;;;14.35;6.47;;;;;;;34.97;40.53;99426.22;1439993;91;21493;-85
2023/08/28 10:09:18;;;;;;;19.42;6.25;;;;;;;35.06;40.46;99422.63;1463419;88;21442;-82
2023/08/28 10:11:43;;;;;;;10.73;6.03;;;;;;;35.06;40.26;99408.31;1435216;90;21581;-84
2023/08/28 10:14:11;;;;;;;8.53;6.20;;;;;;;35.11;39.80;99415.56;1444229;91;21360;-82
2023/08/28 10:16:44;;;;;;;7.67;6.03;;;;;;;35.23;39.38;99416.41;1442221;91;21463;-81
2023/08/28 10:19:29;;;;;;;12.05;6.08;;;;;;;35.30;39.47;99416.44;1477425;88;21538;-82
2023/08/28 10:21:56;;;;;;;10.40;6.65;;;;;;;35.29;37.50;99415.64;1473736;88;22382;-81
2023/08/28 10:24:23;;;;;;;14.93;6.80;;;;;;;35.33;38.61;99416.56;1432349;90;21493;-81
2023/08/28 10:26:50;;;;;;;12.18;5.90;;;;;;;35.35;38.49;99402.48;1443121;90;22329;-82
2023/08/28 10:29:18;;;;;;;12.45;6.05;;;;;;;35.36;38.46;99404.91;1470621;88;21568;-81
2023/08/28 10:31:45;;;;;;;20.17;6.97;;;;;;;35.44;38.45;99406.75;1470313;88;21413;-82
2023/08/28 10:34:14;;;;;;;16.05;6.83;;;;;;;35.45;37.76;99397.38;1440908;90;21695;-82
2023/08/28 10:36:44;;;;;;;8.23;5.73;;;;;;;35.48;37.25;99390.39;1437716;90;21457;-82
2023/08/28 10:39:11;;;;;;;14.20;6.10;;;;;;;35.54;37.99;99393.73;1428753;91;21360;-82
2023/08/28 10:41:38;;;;;;;9.85;5.50;;;;;;;35.68;38.12;99390.13;1432127;91;21389;-82
2023/08/28 10:44:06;;;;;;;8.05;6.15;;;;;;;35.80;37.47;99387.39;1458472;88;21390;-82
2023/08/28 10:46:33;;;;;;;11.68;5.72;;;;;;;35.91;37.59;99391.31;1440224;90;21411;-83
2023/08/28 10:49:04;;;;;;;12.88;5.60;;;;;;;36.01;37.47;99383.16;1448447;88;21494;-82
2023/08/28 10:51:40;;;;;;;8.68;6.28;;;;;;;36.11;37.41;99387.44;1469182;88;22410;-81
2023/08/28 10:54:09;;;;;;;11.15;5.60;;;;;;;36.17;36.17;99380.58;1437226;90;21404;-82
2023/08/28 10:56:39;;;;;;;9.30;6.35;;;;;;;36.15;35.56;99378.16;1421635;91;22342;-82
2023/08/28 10:59:24;;;;;;;13.85;5.62;;;;;;;36.14;35.33;99381.27;1433241;90;21493;-82
2023/08/28 11:01:54;;;;;;;12.88;5.95;;;;;;;36.16;35.30;99370.69;1473401;88;22360;-80
2023/08/28 11:04:22;;;;;;;10.45;5.35;;;;;;;36.16;35.12;99370.69;1474835;88;22395;-81
2023/08/28 11:06:48;;;;;;;19.00;6.17;;;;;;;36.13;35.12;99361.74;1477426;88;21427;-82
2023/08/28 11:09:31;;;;;;;8.50;5.42;;;;;;;36.10;35.32;99359.10;1468055;88;21361;-82
2023/08/28 11:12:03;;;;;;;13.88;6.95;;;;;;;36.17;35.52;99366.81;1472497;88;22278;-82
2023/08/28 11:14:36;;;;;;;10.90;5.80;;;;;;;36.21;35.68;99353.94;1473600;88;21303;-81
2023/08/28 11:17:17;;;;;;;16.42;6.87;;;;;;;36.21;35.12;99348.44;1437399;90;21382;-81
2023/08/28 11:19:59;;;;;;;12.68;5.50;;;;;;;36.30;35.86;99342.22;1470923;88;21435;-81
2023/08/28 11:22:41;;;;;;;13.70;5.42;;;;;;;36.43;36.09;99340.85;1469222;88;21362;-81
2023/08/28 11:25:14;;;;;;;8.73;5.17;;;;;;;36.54;35.96;99339.23;1434873;91;21361;-82